sensor_id;sensor_type;location;lat;lon;timestamp;temperature;humidity
23729;DHT22;12045;60.214;24.724;2023-04-10T00:01:40;4.20;97.20
23729;DHT22;12045;60.214;24.724;2023-04-10T00:04:08;5.40;97.70
23729;DHT22;12045;60.214;24.724;2023-04-10T00:06:36;4.90;97.50
23729;DHT22;12045;60.214;24.724;2023-04-10T00:09:03;5.30;97.60
23729;DHT22;12045;60.214;24.724;2023-04-10T00:11:30;4.80;97.50
23729;DHT22;12045;60.214;24.724;2023-04-10T00:13:58;4.70;97.40
23729;DHT22;12045;60.214;24.724;2023-04-10T00:16:25;5.10;97.30
23729;DHT22;12045;60.214;24.724;2023-04-10T00:18:53;4.50;96.60
23729;DHT22;12045;60.214;24.724;2023-04-10T00:21:20;4.90;96.80
23729;DHT22;12045;60.214;24.724;2023-04-10T00:23:48;4.70;96.40
23729;DHT22;12045;60.214;24.724;2023-04-10T00:26:15;5.00;97.20
23729;DHT22;12045;60.214;24.724;2023-04-10T00:28:43;5.00;97.10
23729;DHT22;12045;60.214;24.724;2023-04-10T00:31:10;4.40;97.10
23729;DHT22;12045;60.214;24.724;2023-04-10T00:33:38;4.70;96.90
23729;DHT22;12045;60.214;24.724;2023-04-10T00:36:05;4.80;97.40
23729;DHT22;12045;60.214;24.724;2023-04-10T00:38:33;4.20;97.10
23729;DHT22;12045;60.214;24.724;2023-04-10T00:41:01;4.30;97.50
23729;DHT22;12045;60.214;24.724;2023-04-10T00:43:29;5.00;97.90
23729;DHT22;12045;60.214;24.724;2023-04-10T00:45:57;3.90;98.20
23729;DHT22;12045;60.214;24.724;2023-04-10T00:48:25;4.50;98.80
23729;DHT22;12045;60.214;24.724;2023-04-10T00:50:53;3.70;99.00
23729;DHT22;12045;60.214;24.724;2023-04-10T00:53:20;3.90;99.40
23729;DHT22;12045;60.214;24.724;2023-04-10T00:55:50;3.60;99.50
23729;DHT22;12045;60.214;24.724;2023-04-10T00:58:17;3.60;99.30
23729;DHT22;12045;60.214;24.724;2023-04-10T01:00:47;3.60;99.90
23729;DHT22;12045;60.214;24.724;2023-04-10T01:03:15;3.90;99.90
23729;DHT22;12045;60.214;24.724;2023-04-10T01:05:52;2.80;99.90
23729;DHT22;12045;60.214;24.724;2023-04-10T01:08:31;3.10;99.90
23729;DHT22;12045;60.214;24.724;2023-04-10T01:17:07;2.10;99.90
23729;DHT22;12045;60.214;24.724;2023-04-10T01:20:08;2.60;99.90
23729;DHT22;12045;60.214;24.724;2023-04-10T01:26:03;2.40;99.90
23729;DHT22;12045;60.214;24.724;2023-04-10T01:28:52;2.20;99.90
23729;DHT22;12045;60.214;24.724;2023-04-10T01:31:29;3.00;99.90
23729;DHT22;12045;60.214;24.724;2023-04-10T01:34:09;2.80;99.90
23729;DHT22;12045;60.214;24.724;2023-04-10T01:36:49;2.60;99.90
23729;DHT22;12045;60.214;24.724;2023-04-10T01:39:19;2.80;99.90
23729;DHT22;12045;60.214;24.724;2023-04-10T01:41:51;3.50;99.90
23729;DHT22;12045;60.214;24.724;2023-04-10T01:44:24;3.70;99.90
23729;DHT22;12045;60.214;24.724;2023-04-10T01:46:54;3.60;99.90
23729;DHT22;12045;60.214;24.724;2023-04-10T01:49:25;4.10;99.90
23729;DHT22;12045;60.214;24.724;2023-04-10T01:51:55;3.50;99.90
23729;DHT22;12045;60.214;24.724;2023-04-10T01:54:27;2.40;99.90
23729;DHT22;12045;60.214;24.724;2023-04-10T01:56:54;3.60;99.90
23729;DHT22;12045;60.214;24.724;2023-04-10T01:59:23;3.70;99.90
23729;DHT22;12045;60.214;24.724;2023-04-10T02:01:57;3.90;99.90
23729;DHT22;12045;60.214;24.724;2023-04-10T02:04:25;2.20;99.90
23729;DHT22;12045;60.214;24.724;2023-04-10T02:09:27;3.70;99.90
23729;DHT22;12045;60.214;24.724;2023-04-10T02:12:06;3.00;99.90
23729;DHT22;12045;60.214;24.724;2023-04-10T02:14:37;1.90;99.90
23729;DHT22;12045;60.214;24.724;2023-04-10T02:17:08;2.30;99.90
23729;DHT22;12045;60.214;24.724;2023-04-10T02:19:36;3.30;99.90
23729;DHT22;12045;60.214;24.724;2023-04-10T02:22:05;2.10;99.90
23729;DHT22;12045;60.214;24.724;2023-04-10T02:24:33;2.40;99.90
23729;DHT22;12045;60.214;24.724;2023-04-10T02:27:01;2.70;99.90
23729;DHT22;12045;60.214;24.724;2023-04-10T02:29:29;1.60;99.90
23729;DHT22;12045;60.214;24.724;2023-04-10T02:31:57;2.30;99.90
23729;DHT22;12045;60.214;24.724;2023-04-10T02:34:24;2.30;99.90
23729;DHT22;12045;60.214;24.724;2023-04-10T02:36:52;1.60;99.90
23729;DHT22;12045;60.214;24.724;2023-04-10T02:39:20;1.60;99.90
23729;DHT22;12045;60.214;24.724;2023-04-10T02:41:47;2.40;99.90
23729;DHT22;12045;60.214;24.724;2023-04-10T02:44:15;2.50;99.90
23729;DHT22;12045;60.214;24.724;2023-04-10T02:46:42;2.70;99.90
23729;DHT22;12045;60.214;24.724;2023-04-10T02:49:09;3.50;99.90
23729;DHT22;12045;60.214;24.724;2023-04-10T02:51:37;2.30;99.90
23729;DHT22;12045;60.214;24.724;2023-04-10T02:54:04;3.20;99.90
23729;DHT22;12045;60.214;24.724;2023-04-10T02:56:34;3.20;99.90
23729;DHT22;12045;60.214;24.724;2023-04-10T02:59:02;2.00;99.90
23729;DHT22;12045;60.214;24.724;2023-04-10T03:01:29;3.40;99.90
23729;DHT22;12045;60.214;24.724;2023-04-10T03:03:58;2.80;99.90
23729;DHT22;12045;60.214;24.724;2023-04-10T03:06:26;2.30;99.90
23729;DHT22;12045;60.214;24.724;2023-04-10T03:08:53;2.70;99.90
23729;DHT22;12045;60.214;24.724;2023-04-10T03:11:21;2.70;99.90
23729;DHT22;12045;60.214;24.724;2023-04-10T03:13:48;2.50;99.90
23729;DHT22;12045;60.214;24.724;2023-04-10T03:16:16;2.30;99.90
23729;DHT22;12045;60.214;24.724;2023-04-10T03:18:47;3.50;99.90
23729;DHT22;12045;60.214;24.724;2023-04-10T03:21:14;1.10;99.90
23729;DHT22;12045;60.214;24.724;2023-04-10T03:23:42;3.30;99.90
23729;DHT22;12045;60.214;24.724;2023-04-10T03:26:10;3.80;99.90
23729;DHT22;12045;60.214;24.724;2023-04-10T03:28:38;3.20;99.90
23729;DHT22;12045;60.214;24.724;2023-04-10T03:31:06;1.10;99.90
23729;DHT22;12045;60.214;24.724;2023-04-10T03:33:33;1.00;99.90
23729;DHT22;12045;60.214;24.724;2023-04-10T03:36:03;2.70;99.90
23729;DHT22;12045;60.214;24.724;2023-04-10T03:38:30;1.10;99.90
23729;DHT22;12045;60.214;24.724;2023-04-10T03:40:58;1.00;99.90
23729;DHT22;12045;60.214;24.724;2023-04-10T03:43:25;1.20;99.90
23729;DHT22;12045;60.214;24.724;2023-04-10T03:45:52;3.60;99.90
23729;DHT22;12045;60.214;24.724;2023-04-10T03:48:20;2.70;99.90
23729;DHT22;12045;60.214;24.724;2023-04-10T03:50:47;2.30;99.90
23729;DHT22;12045;60.214;24.724;2023-04-10T03:53:15;3.60;99.90
23729;DHT22;12045;60.214;24.724;2023-04-10T03:55:43;0.80;99.90
23729;DHT22;12045;60.214;24.724;2023-04-10T03:58:11;2.00;99.90
23729;DHT22;12045;60.214;24.724;2023-04-10T04:00:39;3.00;99.90
23729;DHT22;12045;60.214;24.724;2023-04-10T04:03:06;2.40;99.90
23729;DHT22;12045;60.214;24.724;2023-04-10T04:05:34;0.90;99.90
23729;DHT22;12045;60.214;24.724;2023-04-10T04:08:02;1.90;99.90
23729;DHT22;12045;60.214;24.724;2023-04-10T04:10:32;2.50;99.90
23729;DHT22;12045;60.214;24.724;2023-04-10T04:13:00;1.00;99.90
23729;DHT22;12045;60.214;24.724;2023-04-10T04:15:27;2.20;99.90
23729;DHT22;12045;60.214;24.724;2023-04-10T04:17:56;1.80;99.90
23729;DHT22;12045;60.214;24.724;2023-04-10T04:20:23;2.30;99.90
23729;DHT22;12045;60.214;24.724;2023-04-10T04:22:52;1.70;99.90
23729;DHT22;12045;60.214;24.724;2023-04-10T04:25:19;3.00;99.90
23729;DHT22;12045;60.214;24.724;2023-04-10T04:27:46;2.10;99.90
23729;DHT22;12045;60.214;24.724;2023-04-10T04:30:14;2.70;99.90
23729;DHT22;12045;60.214;24.724;2023-04-10T04:32:41;2.10;99.90
23729;DHT22;12045;60.214;24.724;2023-04-10T04:35:09;2.40;99.90
23729;DHT22;12045;60.214;24.724;2023-04-10T04:37:36;2.20;99.90
23729;DHT22;12045;60.214;24.724;2023-04-10T04:40:04;1.40;99.90
23729;DHT22;12045;60.214;24.724;2023-04-10T04:42:32;1.50;99.90
23729;DHT22;12045;60.214;24.724;2023-04-10T04:44:59;2.80;99.90
23729;DHT22;12045;60.214;24.724;2023-04-10T04:47:27;1.80;99.90
23729;DHT22;12045;60.214;24.724;2023-04-10T04:49:54;2.30;99.90
23729;DHT22;12045;60.214;24.724;2023-04-10T04:52:22;3.10;99.90
23729;DHT22;12045;60.214;24.724;2023-04-10T04:54:49;3.10;99.90
23729;DHT22;12045;60.214;24.724;2023-04-10T04:57:17;2.70;99.90
23729;DHT22;12045;60.214;24.724;2023-04-10T04:59:44;2.60;99.90
23729;DHT22;12045;60.214;24.724;2023-04-10T05:02:11;2.30;99.90
23729;DHT22;12045;60.214;24.724;2023-04-10T05:04:39;4.30;99.90
23729;DHT22;12045;60.214;24.724;2023-04-10T05:07:06;3.40;99.90
23729;DHT22;12045;60.214;24.724;2023-04-10T05:09:34;4.10;99.90
23729;DHT22;12045;60.214;24.724;2023-04-10T05:12:01;3.20;99.90
23729;DHT22;12045;60.214;24.724;2023-04-10T05:14:30;3.20;99.90
23729;DHT22;12045;60.214;24.724;2023-04-10T05:16:57;2.10;99.90
23729;DHT22;12045;60.214;24.724;2023-04-10T05:19:28;2.30;99.90
23729;DHT22;12045;60.214;24.724;2023-04-10T05:21:56;3.70;99.90
23729;DHT22;12045;60.214;24.724;2023-04-10T05:24:23;3.30;99.90
23729;DHT22;12045;60.214;24.724;2023-04-10T05:26:51;2.80;99.90
23729;DHT22;12045;60.214;24.724;2023-04-10T05:29:19;3.00;99.90
23729;DHT22;12045;60.214;24.724;2023-04-10T05:31:47;2.70;99.90
23729;DHT22;12045;60.214;24.724;2023-04-10T05:34:14;2.70;99.90
23729;DHT22;12045;60.214;24.724;2023-04-10T05:36:42;3.80;99.90
23729;DHT22;12045;60.214;24.724;2023-04-10T05:39:10;3.90;99.90
23729;DHT22;12045;60.214;24.724;2023-04-10T05:41:37;3.20;99.90
23729;DHT22;12045;60.214;24.724;2023-04-10T05:44:04;3.40;99.90
23729;DHT22;12045;60.214;24.724;2023-04-10T05:46:32;3.60;99.90
23729;DHT22;12045;60.214;24.724;2023-04-10T05:48:59;3.60;99.90
23729;DHT22;12045;60.214;24.724;2023-04-10T05:51:26;3.80;99.90
23729;DHT22;12045;60.214;24.724;2023-04-10T05:53:54;4.80;99.90
23729;DHT22;12045;60.214;24.724;2023-04-10T05:56:22;4.50;99.90
23729;DHT22;12045;60.214;24.724;2023-04-10T05:58:49;4.60;99.90
23729;DHT22;12045;60.214;24.724;2023-04-10T06:01:17;3.90;99.90
23729;DHT22;12045;60.214;24.724;2023-04-10T06:03:44;4.70;99.90
23729;DHT22;12045;60.214;24.724;2023-04-10T06:06:12;5.30;99.90
23729;DHT22;12045;60.214;24.724;2023-04-10T06:08:40;3.90;99.90
23729;DHT22;12045;60.214;24.724;2023-04-10T06:11:07;5.20;99.90
23729;DHT22;12045;60.214;24.724;2023-04-10T06:13:35;4.70;99.90
23729;DHT22;12045;60.214;24.724;2023-04-10T06:16:02;5.00;99.90
23729;DHT22;12045;60.214;24.724;2023-04-10T06:18:30;4.50;99.90
23729;DHT22;12045;60.214;24.724;2023-04-10T06:20:58;5.40;99.90
23729;DHT22;12045;60.214;24.724;2023-04-10T06:23:28;5.30;99.90
23729;DHT22;12045;60.214;24.724;2023-04-10T06:25:55;5.50;99.90
23729;DHT22;12045;60.214;24.724;2023-04-10T06:28:23;5.40;99.90
23729;DHT22;12045;60.214;24.724;2023-04-10T06:30:50;5.50;99.90
23729;DHT22;12045;60.214;24.724;2023-04-10T06:33:18;5.50;99.90
23729;DHT22;12045;60.214;24.724;2023-04-10T06:35:45;5.70;99.90
23729;DHT22;12045;60.214;24.724;2023-04-10T06:38:13;5.40;99.90
23729;DHT22;12045;60.214;24.724;2023-04-10T06:40:40;5.90;99.90
23729;DHT22;12045;60.214;24.724;2023-04-10T06:43:08;5.60;99.90
23729;DHT22;12045;60.214;24.724;2023-04-10T06:45:35;6.20;99.90
23729;DHT22;12045;60.214;24.724;2023-04-10T06:48:03;6.20;99.90
23729;DHT22;12045;60.214;24.724;2023-04-10T06:50:30;6.60;99.90
23729;DHT22;12045;60.214;24.724;2023-04-10T06:52:59;6.20;99.90
23729;DHT22;12045;60.214;24.724;2023-04-10T06:55:27;6.30;99.90
23729;DHT22;12045;60.214;24.724;2023-04-10T06:57:56;6.30;99.90
23729;DHT22;12045;60.214;24.724;2023-04-10T07:00:23;6.40;99.90
23729;DHT22;12045;60.214;24.724;2023-04-10T07:02:51;6.50;99.90
23729;DHT22;12045;60.214;24.724;2023-04-10T07:05:19;6.60;99.90
23729;DHT22;12045;60.214;24.724;2023-04-10T07:07:47;6.80;99.90
23729;DHT22;12045;60.214;24.724;2023-04-10T07:10:16;6.80;99.90
23729;DHT22;12045;60.214;24.724;2023-04-10T07:12:44;6.90;99.90
23729;DHT22;12045;60.214;24.724;2023-04-10T07:15:11;7.10;99.10
23729;DHT22;12045;60.214;24.724;2023-04-10T07:17:38;7.30;98.20
23729;DHT22;12045;60.214;24.724;2023-04-10T07:20:06;7.50;97.40
23729;DHT22;12045;60.214;24.724;2023-04-10T07:22:34;7.60;96.80
23729;DHT22;12045;60.214;24.724;2023-04-10T07:25:02;8.30;96.20
23729;DHT22;12045;60.214;24.724;2023-04-10T07:27:29;8.10;95.50
23729;DHT22;12045;60.214;24.724;2023-04-10T07:29:56;8.30;95.20
23729;DHT22;12045;60.214;24.724;2023-04-10T07:32:24;8.40;94.70
23729;DHT22;12045;60.214;24.724;2023-04-10T07:34:51;8.50;93.90
23729;DHT22;12045;60.214;24.724;2023-04-10T07:37:19;8.60;93.90
23729;DHT22;12045;60.214;24.724;2023-04-10T07:39:47;8.90;93.50
23729;DHT22;12045;60.214;24.724;2023-04-10T07:42:14;9.00;91.30
23729;DHT22;12045;60.214;24.724;2023-04-10T07:44:42;9.20;90.50
23729;DHT22;12045;60.214;24.724;2023-04-10T07:47:09;9.40;89.10
23729;DHT22;12045;60.214;24.724;2023-04-10T07:49:37;9.60;87.20
23729;DHT22;12045;60.214;24.724;2023-04-10T07:52:04;9.60;85.90
23729;DHT22;12045;60.214;24.724;2023-04-10T07:54:32;9.90;84.70
23729;DHT22;12045;60.214;24.724;2023-04-10T07:57:00;10.00;81.70
23729;DHT22;12045;60.214;24.724;2023-04-10T07:59:27;10.00;80.90
23729;DHT22;12045;60.214;24.724;2023-04-10T08:01:55;10.10;79.70
23729;DHT22;12045;60.214;24.724;2023-04-10T08:04:23;10.20;79.20
23729;DHT22;12045;60.214;24.724;2023-04-10T08:06:51;10.20;78.10
23729;DHT22;12045;60.214;24.724;2023-04-10T08:09:18;10.80;77.70
23729;DHT22;12045;60.214;24.724;2023-04-10T08:11:46;10.30;76.90
23729;DHT22;12045;60.214;24.724;2023-04-10T08:14:13;10.30;76.10
23729;DHT22;12045;60.214;24.724;2023-04-10T08:16:44;10.10;75.20
23729;DHT22;12045;60.214;24.724;2023-04-10T08:19:12;10.30;76.10
23729;DHT22;12045;60.214;24.724;2023-04-10T08:21:39;10.40;75.10
23729;DHT22;12045;60.214;24.724;2023-04-10T08:24:07;10.90;74.10
23729;DHT22;12045;60.214;24.724;2023-04-10T08:26:34;10.40;74.00
23729;DHT22;12045;60.214;24.724;2023-04-10T08:29:02;10.40;74.60
23729;DHT22;12045;60.214;24.724;2023-04-10T08:31:30;10.60;73.20
23729;DHT22;12045;60.214;24.724;2023-04-10T08:33:58;10.50;72.60
23729;DHT22;12045;60.214;24.724;2023-04-10T08:36:26;10.60;72.40
23729;DHT22;12045;60.214;24.724;2023-04-10T08:38:54;10.70;71.90
23729;DHT22;12045;60.214;24.724;2023-04-10T08:41:22;10.80;71.70
23729;DHT22;12045;60.214;24.724;2023-04-10T08:43:49;10.90;70.70
23729;DHT22;12045;60.214;24.724;2023-04-10T08:46:17;10.90;70.80
23729;DHT22;12045;60.214;24.724;2023-04-10T08:48:54;11.00;70.10
23729;DHT22;12045;60.214;24.724;2023-04-10T08:51:30;11.10;70.40
23729;DHT22;12045;60.214;24.724;2023-04-10T08:54:06;11.10;70.00
23729;DHT22;12045;60.214;24.724;2023-04-10T08:56:34;11.20;69.80
23729;DHT22;12045;60.214;24.724;2023-04-10T08:59:04;11.30;69.90
23729;DHT22;12045;60.214;24.724;2023-04-10T09:01:31;11.30;68.50
23729;DHT22;12045;60.214;24.724;2023-04-10T09:04:01;11.40;68.90
23729;DHT22;12045;60.214;24.724;2023-04-10T09:06:28;11.50;68.90
23729;DHT22;12045;60.214;24.724;2023-04-10T09:08:57;11.80;91.80
23729;DHT22;12045;60.214;24.724;2023-04-10T09:14:33;11.50;68.30
23729;DHT22;12045;60.214;24.724;2023-04-10T09:17:22;11.40;68.20
23729;DHT22;12045;60.214;24.724;2023-04-10T09:19:54;11.50;68.70
23729;DHT22;12045;60.214;24.724;2023-04-10T09:22:30;11.40;66.90
23729;DHT22;12045;60.214;24.724;2023-04-10T09:24:59;11.60;67.40
23729;DHT22;12045;60.214;24.724;2023-04-10T09:27:32;11.80;67.50
23729;DHT22;12045;60.214;24.724;2023-04-10T09:30:02;11.70;66.60
23729;DHT22;12045;60.214;24.724;2023-04-10T09:32:43;11.80;66.10
23729;DHT22;12045;60.214;24.724;2023-04-10T09:35:12;12.10;66.70
23729;DHT22;12045;60.214;24.724;2023-04-10T09:37:45;11.90;66.30
23729;DHT22;12045;60.214;24.724;2023-04-10T09:40:23;11.90;67.80
23729;DHT22;12045;60.214;24.724;2023-04-10T09:42:52;11.90;66.50
23729;DHT22;12045;60.214;24.724;2023-04-10T09:45:22;11.90;66.10
23729;DHT22;12045;60.214;24.724;2023-04-10T09:48:03;12.10;65.70
23729;DHT22;12045;60.214;24.724;2023-04-10T09:50:35;12.20;66.10
23729;DHT22;12045;60.214;24.724;2023-04-10T09:53:11;12.70;65.80
23729;DHT22;12045;60.214;24.724;2023-04-10T09:55:40;12.30;64.80
23729;DHT22;12045;60.214;24.724;2023-04-10T09:58:09;12.30;64.80
23729;DHT22;12045;60.214;24.724;2023-04-10T10:00:41;12.40;65.20
23729;DHT22;12045;60.214;24.724;2023-04-10T10:03:11;12.50;64.80
23729;DHT22;12045;60.214;24.724;2023-04-10T10:05:41;12.60;65.80
23729;DHT22;12045;60.214;24.724;2023-04-10T10:08:11;12.60;64.10
23729;DHT22;12045;60.214;24.724;2023-04-10T10:13:40;13.80;61.20
23729;DHT22;12045;60.214;24.724;2023-04-10T10:21:22;15.30;56.40
23729;DHT22;12045;60.214;24.724;2023-04-10T10:26:20;16.10;56.90
23729;DHT22;12045;60.214;24.724;2023-04-10T10:28:52;15.60;57.80
23729;DHT22;12045;60.214;24.724;2023-04-10T10:31:21;16.90;63.60
23729;DHT22;12045;60.214;24.724;2023-04-10T10:33:51;16.50;63.30
23729;DHT22;12045;60.214;24.724;2023-04-10T10:36:19;16.60;59.40
23729;DHT22;12045;60.214;24.724;2023-04-10T10:44:12;17.20;57.10
23729;DHT22;12045;60.214;24.724;2023-04-10T10:46:56;17.20;57.20
23729;DHT22;12045;60.214;24.724;2023-04-10T10:57:52;17.30;56.40
23729;DHT22;12045;60.214;24.724;2023-04-10T11:00:25;17.60;56.10
23729;DHT22;12045;60.214;24.724;2023-04-10T11:05:57;17.40;56.00
23729;DHT22;12045;60.214;24.724;2023-04-10T11:08:38;17.40;56.00
23729;DHT22;12045;60.214;24.724;2023-04-10T11:19:02;18.00;55.00
23729;DHT22;12045;60.214;24.724;2023-04-10T11:22:05;17.20;54.70
23729;DHT22;12045;60.214;24.724;2023-04-10T11:24:57;17.20;54.90
23729;DHT22;12045;60.214;24.724;2023-04-10T11:27:39;17.10;54.50
23729;DHT22;12045;60.214;24.724;2023-04-10T11:30:25;16.90;54.80
23729;DHT22;12045;60.214;24.724;2023-04-10T11:32:56;16.60;55.00
23729;DHT22;12045;60.214;24.724;2023-04-10T11:35:25;16.80;54.20
23729;DHT22;12045;60.214;24.724;2023-04-10T11:38:15;16.80;54.50
23729;DHT22;12045;60.214;24.724;2023-04-10T11:40:56;16.90;54.80
23729;DHT22;12045;60.214;24.724;2023-04-10T11:43:24;16.90;55.20
23729;DHT22;12045;60.214;24.724;2023-04-10T11:46:02;16.80;57.00
23729;DHT22;12045;60.214;24.724;2023-04-10T11:48:31;16.60;56.20
23729;DHT22;12045;60.214;24.724;2023-04-10T11:51:05;16.60;56.90
23729;DHT22;12045;60.214;24.724;2023-04-10T11:53:32;16.60;56.50
23729;DHT22;12045;60.214;24.724;2023-04-10T11:56:00;16.60;57.30
23729;DHT22;12045;60.214;24.724;2023-04-10T11:58:29;16.20;54.30
23729;DHT22;12045;60.214;24.724;2023-04-10T12:01:02;16.60;55.10
23729;DHT22;12045;60.214;24.724;2023-04-10T12:03:40;16.40;54.90
23729;DHT22;12045;60.214;24.724;2023-04-10T12:06:12;16.40;55.70
23729;DHT22;12045;60.214;24.724;2023-04-10T12:08:42;16.40;57.00
23729;DHT22;12045;60.214;24.724;2023-04-10T12:11:12;16.40;55.80
23729;DHT22;12045;60.214;24.724;2023-04-10T12:13:40;16.70;56.10
23729;DHT22;12045;60.214;24.724;2023-04-10T12:16:09;16.50;56.10
23729;DHT22;12045;60.214;24.724;2023-04-10T12:18:37;16.50;55.80
23729;DHT22;12045;60.214;24.724;2023-04-10T12:21:05;16.70;55.20
23729;DHT22;12045;60.214;24.724;2023-04-10T12:23:36;16.60;54.50
23729;DHT22;12045;60.214;24.724;2023-04-10T12:28:38;16.70;55.50
23729;DHT22;12045;60.214;24.724;2023-04-10T12:31:06;16.40;55.30
23729;DHT22;12045;60.214;24.724;2023-04-10T12:33:33;16.60;55.70
23729;DHT22;12045;60.214;24.724;2023-04-10T12:36:01;16.50;56.00
23729;DHT22;12045;60.214;24.724;2023-04-10T12:38:41;16.00;55.30
23729;DHT22;12045;60.214;24.724;2023-04-10T12:41:10;15.80;55.50
23729;DHT22;12045;60.214;24.724;2023-04-10T12:43:41;15.60;56.80
23729;DHT22;12045;60.214;24.724;2023-04-10T12:46:24;15.30;56.90
23729;DHT22;12045;60.214;24.724;2023-04-10T12:48:53;15.30;57.80
23729;DHT22;12045;60.214;24.724;2023-04-10T12:51:40;15.10;57.90
23729;DHT22;12045;60.214;24.724;2023-04-10T12:54:08;15.00;58.80
23729;DHT22;12045;60.214;24.724;2023-04-10T12:56:42;14.80;59.10
23729;DHT22;12045;60.214;24.724;2023-04-10T12:59:10;14.50;59.00
23729;DHT22;12045;60.214;24.724;2023-04-10T13:01:38;14.20;59.30
23729;DHT22;12045;60.214;24.724;2023-04-10T13:04:06;13.30;60.90
23729;DHT22;12045;60.214;24.724;2023-04-10T13:06:42;13.50;61.70
23729;DHT22;12045;60.214;24.724;2023-04-10T13:09:11;13.30;62.20
23729;DHT22;12045;60.214;24.724;2023-04-10T13:11:40;12.90;63.00
23729;DHT22;12045;60.214;24.724;2023-04-10T13:14:08;12.70;63.70
23729;DHT22;12045;60.214;24.724;2023-04-10T13:16:36;12.50;64.10
23729;DHT22;12045;60.214;24.724;2023-04-10T13:19:04;12.40;63.70
23729;DHT22;12045;60.214;24.724;2023-04-10T13:21:31;12.30;64.30
23729;DHT22;12045;60.214;24.724;2023-04-10T13:23:59;12.20;65.00
23729;DHT22;12045;60.214;24.724;2023-04-10T13:26:26;12.10;64.30
23729;DHT22;12045;60.214;24.724;2023-04-10T13:28:54;12.00;64.50
23729;DHT22;12045;60.214;24.724;2023-04-10T13:31:22;11.90;64.20
23729;DHT22;12045;60.214;24.724;2023-04-10T13:33:49;12.40;65.00
23729;DHT22;12045;60.214;24.724;2023-04-10T13:36:17;11.80;63.80
23729;DHT22;12045;60.214;24.724;2023-04-10T13:38:45;11.70;63.20
23729;DHT22;12045;60.214;24.724;2023-04-10T13:41:12;11.60;64.00
23729;DHT22;12045;60.214;24.724;2023-04-10T13:43:39;11.40;64.20
23729;DHT22;12045;60.214;24.724;2023-04-10T13:46:07;11.30;65.50
23729;DHT22;12045;60.214;24.724;2023-04-10T13:48:34;11.30;65.60
23729;DHT22;12045;60.214;24.724;2023-04-10T13:51:07;11.20;65.90
23729;DHT22;12045;60.214;24.724;2023-04-10T13:53:35;11.20;64.90
23729;DHT22;12045;60.214;24.724;2023-04-10T13:56:02;11.10;64.70
23729;DHT22;12045;60.214;24.724;2023-04-10T13:58:30;11.10;65.60
23729;DHT22;12045;60.214;24.724;2023-04-10T14:01:00;11.10;65.20
23729;DHT22;12045;60.214;24.724;2023-04-10T14:03:28;11.10;64.60
23729;DHT22;12045;60.214;24.724;2023-04-10T14:05:55;11.00;65.00
23729;DHT22;12045;60.214;24.724;2023-04-10T14:08:23;11.00;64.80
23729;DHT22;12045;60.214;24.724;2023-04-10T14:10:50;11.10;65.00
23729;DHT22;12045;60.214;24.724;2023-04-10T14:13:18;10.60;65.10
23729;DHT22;12045;60.214;24.724;2023-04-10T14:15:45;11.20;65.30
23729;DHT22;12045;60.214;24.724;2023-04-10T14:18:13;11.80;65.70
23729;DHT22;12045;60.214;24.724;2023-04-10T14:20:43;11.20;64.80
23729;DHT22;12045;60.214;24.724;2023-04-10T14:23:11;11.10;64.70
23729;DHT22;12045;60.214;24.724;2023-04-10T14:25:45;11.10;65.40
23729;DHT22;12045;60.214;24.724;2023-04-10T14:28:12;11.10;65.20
23729;DHT22;12045;60.214;24.724;2023-04-10T14:30:49;11.00;67.00
23729;DHT22;12045;60.214;24.724;2023-04-10T14:33:18;11.00;65.90
23729;DHT22;12045;60.214;24.724;2023-04-10T14:35:46;11.00;65.50
23729;DHT22;12045;60.214;24.724;2023-04-10T14:38:14;11.00;65.10
23729;DHT22;12045;60.214;24.724;2023-04-10T14:40:42;10.80;66.30
23729;DHT22;12045;60.214;24.724;2023-04-10T14:43:11;10.90;66.70
23729;DHT22;12045;60.214;24.724;2023-04-10T14:45:39;10.90;67.00
23729;DHT22;12045;60.214;24.724;2023-04-10T14:48:06;10.90;67.00
23729;DHT22;12045;60.214;24.724;2023-04-10T14:50:34;10.90;67.00
23729;DHT22;12045;60.214;24.724;2023-04-10T14:53:01;10.90;67.40
23729;DHT22;12045;60.214;24.724;2023-04-10T14:55:29;10.80;67.60
23729;DHT22;12045;60.214;24.724;2023-04-10T14:57:56;10.80;67.80
23729;DHT22;12045;60.214;24.724;2023-04-10T15:00:25;10.80;68.10
23729;DHT22;12045;60.214;24.724;2023-04-10T15:02:53;10.80;67.90
23729;DHT22;12045;60.214;24.724;2023-04-10T15:05:21;10.40;67.20
23729;DHT22;12045;60.214;24.724;2023-04-10T15:07:49;10.70;68.20
23729;DHT22;12045;60.214;24.724;2023-04-10T15:10:16;10.70;67.30
23729;DHT22;12045;60.214;24.724;2023-04-10T15:12:44;10.70;66.10
23729;DHT22;12045;60.214;24.724;2023-04-10T15:15:11;10.50;65.60
23729;DHT22;12045;60.214;24.724;2023-04-10T15:17:42;10.60;66.20
23729;DHT22;12045;60.214;24.724;2023-04-10T15:20:10;10.30;66.90
23729;DHT22;12045;60.214;24.724;2023-04-10T15:22:37;10.60;67.00
23729;DHT22;12045;60.214;24.724;2023-04-10T15:25:07;10.30;67.40
23729;DHT22;12045;60.214;24.724;2023-04-10T15:27:35;10.30;67.90
23729;DHT22;12045;60.214;24.724;2023-04-10T15:30:03;10.40;67.90
23729;DHT22;12045;60.214;24.724;2023-04-10T15:32:31;10.50;67.90
23729;DHT22;12045;60.214;24.724;2023-04-10T15:34:59;10.30;66.40
23729;DHT22;12045;60.214;24.724;2023-04-10T15:37:26;10.40;66.70
23729;DHT22;12045;60.214;24.724;2023-04-10T15:39:54;10.40;66.00
23729;DHT22;12045;60.214;24.724;2023-04-10T15:42:21;10.40;66.00
23729;DHT22;12045;60.214;24.724;2023-04-10T15:44:49;10.30;66.80
23729;DHT22;12045;60.214;24.724;2023-04-10T15:47:16;10.40;66.80
23729;DHT22;12045;60.214;24.724;2023-04-10T15:49:44;10.30;67.00
23729;DHT22;12045;60.214;24.724;2023-04-10T15:52:11;10.30;66.70
23729;DHT22;12045;60.214;24.724;2023-04-10T15:54:39;10.30;66.30
23729;DHT22;12045;60.214;24.724;2023-04-10T15:57:06;10.10;66.30
23729;DHT22;12045;60.214;24.724;2023-04-10T15:59:35;10.30;66.20
23729;DHT22;12045;60.214;24.724;2023-04-10T16:02:02;10.00;65.90
23729;DHT22;12045;60.214;24.724;2023-04-10T16:04:30;10.00;66.10
23729;DHT22;12045;60.214;24.724;2023-04-10T16:06:58;10.00;65.10
23729;DHT22;12045;60.214;24.724;2023-04-10T16:09:26;9.50;65.10
23729;DHT22;12045;60.214;24.724;2023-04-10T16:11:54;9.80;65.70
23729;DHT22;12045;60.214;24.724;2023-04-10T16:14:22;9.90;65.30
23729;DHT22;12045;60.214;24.724;2023-04-10T16:16:50;9.80;65.70
23729;DHT22;12045;60.214;24.724;2023-04-10T16:19:17;9.90;66.90
23729;DHT22;12045;60.214;24.724;2023-04-10T16:21:45;9.80;65.70
23729;DHT22;12045;60.214;24.724;2023-04-10T16:24:13;9.80;66.20
23729;DHT22;12045;60.214;24.724;2023-04-10T16:26:40;9.90;65.90
23729;DHT22;12045;60.214;24.724;2023-04-10T16:29:07;9.70;65.70